sensor_id;sensor_type;location;lat;lon;timestamp;temperature;humidity
52058;DHT22;38063;53.210;6.504;2023-07-13T00:01:51;16.00;99.90
52058;DHT22;38063;53.210;6.504;2023-07-13T00:04:22;16.00;99.90
52058;DHT22;38063;53.210;6.504;2023-07-13T00:06:48;16.00;99.90
52058;DHT22;38063;53.210;6.504;2023-07-13T00:09:17;16.00;99.90
52058;DHT22;38063;53.210;6.504;2023-07-13T00:11:44;16.00;99.90
52058;DHT22;38063;53.210;6.504;2023-07-13T00:14:11;16.00;99.90
52058;DHT22;38063;53.210;6.504;2023-07-13T00:16:38;16.00;99.90
52058;DHT22;38063;53.210;6.504;2023-07-13T00:19:05;16.00;99.90
52058;DHT22;38063;53.210;6.504;2023-07-13T00:21:31;16.00;99.90
52058;DHT22;38063;53.210;6.504;2023-07-13T00:23:57;16.10;99.90
52058;DHT22;38063;53.210;6.504;2023-07-13T00:26:23;16.10;99.90
52058;DHT22;38063;53.210;6.504;2023-07-13T00:28:49;16.10;99.90
52058;DHT22;38063;53.210;6.504;2023-07-13T00:31:15;16.10;99.90
52058;DHT22;38063;53.210;6.504;2023-07-13T00:33:41;16.10;99.90
52058;DHT22;38063;53.210;6.504;2023-07-13T00:36:08;16.10;99.90
52058;DHT22;38063;53.210;6.504;2023-07-13T00:38:34;16.20;99.90
52058;DHT22;38063;53.210;6.504;2023-07-13T00:41:00;16.20;99.90
52058;DHT22;38063;53.210;6.504;2023-07-13T00:43:27;16.20;99.90
52058;DHT22;38063;53.210;6.504;2023-07-13T00:48:22;16.20;99.90
52058;DHT22;38063;53.210;6.504;2023-07-13T00:50:51;16.20;99.90
52058;DHT22;38063;53.210;6.504;2023-07-13T00:53:19;16.20;99.90
52058;DHT22;38063;53.210;6.504;2023-07-13T00:55:46;16.20;99.90
52058;DHT22;38063;53.210;6.504;2023-07-13T00:58:13;16.20;99.90
52058;DHT22;38063;53.210;6.504;2023-07-13T01:00:40;16.20;99.90
52058;DHT22;38063;53.210;6.504;2023-07-13T01:03:06;16.20;99.90
52058;DHT22;38063;53.210;6.504;2023-07-13T01:05:34;16.20;99.90
52058;DHT22;38063;53.210;6.504;2023-07-13T01:08:03;16.20;99.90
52058;DHT22;38063;53.210;6.504;2023-07-13T01:10:30;16.10;99.90
52058;DHT22;38063;53.210;6.504;2023-07-13T01:13:03;16.10;99.90
52058;DHT22;38063;53.210;6.504;2023-07-13T01:15:46;16.10;99.90
52058;DHT22;38063;53.210;6.504;2023-07-13T01:21:04;16.00;99.90
52058;DHT22;38063;53.210;6.504;2023-07-13T01:23:30;16.00;99.90
52058;DHT22;38063;53.210;6.504;2023-07-13T01:25:57;16.00;99.90
52058;DHT22;38063;53.210;6.504;2023-07-13T01:28:25;15.90;99.90
52058;DHT22;38063;53.210;6.504;2023-07-13T01:30:56;16.00;99.90
52058;DHT22;38063;53.210;6.504;2023-07-13T01:33:22;15.90;99.90
52058;DHT22;38063;53.210;6.504;2023-07-13T01:35:48;15.90;99.90
52058;DHT22;38063;53.210;6.504;2023-07-13T01:38:16;15.90;99.90
52058;DHT22;38063;53.210;6.504;2023-07-13T01:40:43;15.90;99.90
52058;DHT22;38063;53.210;6.504;2023-07-13T01:43:09;15.90;99.90
52058;DHT22;38063;53.210;6.504;2023-07-13T01:45:35;15.90;99.90
52058;DHT22;38063;53.210;6.504;2023-07-13T01:48:00;15.90;99.90
52058;DHT22;38063;53.210;6.504;2023-07-13T01:50:26;15.90;99.90
52058;DHT22;38063;53.210;6.504;2023-07-13T01:52:53;15.90;99.90
52058;DHT22;38063;53.210;6.504;2023-07-13T01:55:19;15.90;99.90
52058;DHT22;38063;53.210;6.504;2023-07-13T01:57:45;15.90;99.90
52058;DHT22;38063;53.210;6.504;2023-07-13T02:00:12;15.80;99.90
52058;DHT22;38063;53.210;6.504;2023-07-13T02:02:38;15.90;99.90
52058;DHT22;38063;53.210;6.504;2023-07-13T02:05:05;15.90;99.90
52058;DHT22;38063;53.210;6.504;2023-07-13T02:07:31;15.80;99.90
52058;DHT22;38063;53.210;6.504;2023-07-13T02:09:56;15.90;99.90
52058;DHT22;38063;53.210;6.504;2023-07-13T02:12:22;15.90;99.90
52058;DHT22;38063;53.210;6.504;2023-07-13T02:14:48;15.90;99.90
52058;DHT22;38063;53.210;6.504;2023-07-13T02:17:13;15.80;99.90
52058;DHT22;38063;53.210;6.504;2023-07-13T02:19:39;15.80;99.90
52058;DHT22;38063;53.210;6.504;2023-07-13T02:22:05;15.80;99.90
52058;DHT22;38063;53.210;6.504;2023-07-13T02:24:31;15.70;99.90
52058;DHT22;38063;53.210;6.504;2023-07-13T02:26:57;15.80;99.90
52058;DHT22;38063;53.210;6.504;2023-07-13T02:29:23;15.70;99.90
52058;DHT22;38063;53.210;6.504;2023-07-13T02:31:49;15.70;99.90
52058;DHT22;38063;53.210;6.504;2023-07-13T02:34:14;15.70;99.90
52058;DHT22;38063;53.210;6.504;2023-07-13T02:36:40;15.70;99.90
52058;DHT22;38063;53.210;6.504;2023-07-13T02:39:06;15.60;99.90
52058;DHT22;38063;53.210;6.504;2023-07-13T02:41:32;15.60;99.90
52058;DHT22;38063;53.210;6.504;2023-07-13T02:43:58;15.60;99.90
52058;DHT22;38063;53.210;6.504;2023-07-13T02:46:33;15.60;99.90
52058;DHT22;38063;53.210;6.504;2023-07-13T02:48:59;15.50;99.90
52058;DHT22;38063;53.210;6.504;2023-07-13T02:51:25;15.50;99.90
52058;DHT22;38063;53.210;6.504;2023-07-13T02:53:51;15.50;99.90
52058;DHT22;38063;53.210;6.504;2023-07-13T02:56:17;15.50;99.90
52058;DHT22;38063;53.210;6.504;2023-07-13T02:58:43;15.40;99.90
52058;DHT22;38063;53.210;6.504;2023-07-13T03:01:09;15.40;99.90
52058;DHT22;38063;53.210;6.504;2023-07-13T03:03:37;15.40;99.90
52058;DHT22;38063;53.210;6.504;2023-07-13T03:06:04;15.40;99.90
52058;DHT22;38063;53.210;6.504;2023-07-13T03:08:31;15.30;99.90
52058;DHT22;38063;53.210;6.504;2023-07-13T03:11:09;15.30;99.90
52058;DHT22;38063;53.210;6.504;2023-07-13T03:13:37;15.30;99.90
52058;DHT22;38063;53.210;6.504;2023-07-13T03:16:03;15.20;99.90
52058;DHT22;38063;53.210;6.504;2023-07-13T03:18:30;15.20;99.90
52058;DHT22;38063;53.210;6.504;2023-07-13T03:20:56;15.20;99.90
52058;DHT22;38063;53.210;6.504;2023-07-13T03:23:22;15.20;99.90
52058;DHT22;38063;53.210;6.504;2023-07-13T03:25:48;15.20;99.90
52058;DHT22;38063;53.210;6.504;2023-07-13T03:28:14;15.20;99.90
52058;DHT22;38063;53.210;6.504;2023-07-13T03:30:41;15.10;99.90
52058;DHT22;38063;53.210;6.504;2023-07-13T03:33:06;15.10;99.90
52058;DHT22;38063;53.210;6.504;2023-07-13T03:35:33;15.20;99.90
52058;DHT22;38063;53.210;6.504;2023-07-13T03:37:59;15.20;99.90
52058;DHT22;38063;53.210;6.504;2023-07-13T03:40:26;15.20;99.90
52058;DHT22;38063;53.210;6.504;2023-07-13T03:42:52;15.20;99.90
52058;DHT22;38063;53.210;6.504;2023-07-13T03:45:19;15.20;99.90
52058;DHT22;38063;53.210;6.504;2023-07-13T03:47:44;15.30;99.90
52058;DHT22;38063;53.210;6.504;2023-07-13T03:50:10;15.20;99.90
52058;DHT22;38063;53.210;6.504;2023-07-13T03:52:36;15.30;99.90
52058;DHT22;38063;53.210;6.504;2023-07-13T03:55:02;15.30;99.90
52058;DHT22;38063;53.210;6.504;2023-07-13T03:57:28;15.40;99.90
52058;DHT22;38063;53.210;6.504;2023-07-13T03:59:54;15.10;99.90
52058;DHT22;38063;53.210;6.504;2023-07-13T04:02:20;15.40;99.90
52058;DHT22;38063;53.210;6.504;2023-07-13T04:04:46;15.40;99.90
52058;DHT22;38063;53.210;6.504;2023-07-13T04:07:12;15.40;99.90
52058;DHT22;38063;53.210;6.504;2023-07-13T04:09:38;15.40;99.90
52058;DHT22;38063;53.210;6.504;2023-07-13T04:12:04;15.40;99.90
52058;DHT22;38063;53.210;6.504;2023-07-13T04:14:30;15.50;99.90
52058;DHT22;38063;53.210;6.504;2023-07-13T04:16:55;15.40;99.90
52058;DHT22;38063;53.210;6.504;2023-07-13T04:19:21;15.50;99.90
52058;DHT22;38063;53.210;6.504;2023-07-13T04:21:47;15.40;99.90
52058;DHT22;38063;53.210;6.504;2023-07-13T04:24:12;15.60;99.90
52058;DHT22;38063;53.210;6.504;2023-07-13T04:26:38;15.30;99.90
52058;DHT22;38063;53.210;6.504;2023-07-13T04:29:05;15.40;99.90
52058;DHT22;38063;53.210;6.504;2023-07-13T04:31:32;15.40;99.90
52058;DHT22;38063;53.210;6.504;2023-07-13T04:33:58;15.40;99.90
52058;DHT22;38063;53.210;6.504;2023-07-13T04:36:25;15.40;99.90
52058;DHT22;38063;53.210;6.504;2023-07-13T04:38:52;15.40;99.90
52058;DHT22;38063;53.210;6.504;2023-07-13T04:41:20;15.40;99.90
52058;DHT22;38063;53.210;6.504;2023-07-13T04:43:46;15.50;99.90
52058;DHT22;38063;53.210;6.504;2023-07-13T04:46:14;15.50;99.90
52058;DHT22;38063;53.210;6.504;2023-07-13T04:48:41;15.50;99.90
52058;DHT22;38063;53.210;6.504;2023-07-13T04:51:07;15.50;99.90
52058;DHT22;38063;53.210;6.504;2023-07-13T04:53:33;15.50;99.90
52058;DHT22;38063;53.210;6.504;2023-07-13T04:56:00;15.60;99.90
52058;DHT22;38063;53.210;6.504;2023-07-13T04:58:26;15.60;99.90
52058;DHT22;38063;53.210;6.504;2023-07-13T05:00:53;15.60;99.90
52058;DHT22;38063;53.210;6.504;2023-07-13T05:03:19;15.70;99.90
52058;DHT22;38063;53.210;6.504;2023-07-13T05:05:55;15.70;99.90
52058;DHT22;38063;53.210;6.504;2023-07-13T05:08:21;15.80;99.90
52058;DHT22;38063;53.210;6.504;2023-07-13T05:10:46;15.80;99.90
52058;DHT22;38063;53.210;6.504;2023-07-13T05:13:12;15.80;99.90
52058;DHT22;38063;53.210;6.504;2023-07-13T05:15:41;15.90;99.90
52058;DHT22;38063;53.210;6.504;2023-07-13T05:18:06;16.00;99.90
52058;DHT22;38063;53.210;6.504;2023-07-13T05:20:32;16.00;99.90
52058;DHT22;38063;53.210;6.504;2023-07-13T05:22:58;16.10;99.90
52058;DHT22;38063;53.210;6.504;2023-07-13T05:25:23;16.10;99.90
52058;DHT22;38063;53.210;6.504;2023-07-13T05:27:49;16.20;99.90
52058;DHT22;38063;53.210;6.504;2023-07-13T05:30:14;16.20;99.90
52058;DHT22;38063;53.210;6.504;2023-07-13T05:32:40;16.20;99.90
52058;DHT22;38063;53.210;6.504;2023-07-13T05:35:06;16.30;99.90
52058;DHT22;38063;53.210;6.504;2023-07-13T05:37:32;16.40;99.90
52058;DHT22;38063;53.210;6.504;2023-07-13T05:39:58;16.40;99.90
52058;DHT22;38063;53.210;6.504;2023-07-13T05:42:24;16.50;99.90
52058;DHT22;38063;53.210;6.504;2023-07-13T05:44:50;16.60;99.90
52058;DHT22;38063;53.210;6.504;2023-07-13T05:47:15;16.70;99.90
52058;DHT22;38063;53.210;6.504;2023-07-13T05:49:41;17.00;99.90
52058;DHT22;38063;53.210;6.504;2023-07-13T05:52:07;17.10;99.90
52058;DHT22;38063;53.210;6.504;2023-07-13T05:54:33;17.30;99.90
52058;DHT22;38063;53.210;6.504;2023-07-13T05:56:58;17.50;99.90
52058;DHT22;38063;53.210;6.504;2023-07-13T05:59:24;17.70;99.90
52058;DHT22;38063;53.210;6.504;2023-07-13T06:01:51;17.90;99.90
52058;DHT22;38063;53.210;6.504;2023-07-13T06:04:18;18.10;99.90
52058;DHT22;38063;53.210;6.504;2023-07-13T06:06:44;18.30;99.90
52058;DHT22;38063;53.210;6.504;2023-07-13T06:09:10;18.50;99.90
52058;DHT22;38063;53.210;6.504;2023-07-13T06:11:36;18.60;99.90
52058;DHT22;38063;53.210;6.504;2023-07-13T06:14:02;18.80;99.90
52058;DHT22;38063;53.210;6.504;2023-07-13T06:16:29;18.90;99.90
52058;DHT22;38063;53.210;6.504;2023-07-13T06:18:55;19.10;99.90
52058;DHT22;38063;53.210;6.504;2023-07-13T06:21:22;19.20;99.90
52058;DHT22;38063;53.210;6.504;2023-07-13T06:23:49;19.20;99.90
52058;DHT22;38063;53.210;6.504;2023-07-13T06:26:17;19.40;99.90
52058;DHT22;38063;53.210;6.504;2023-07-13T06:28:43;19.50;99.90
52058;DHT22;38063;53.210;6.504;2023-07-13T06:31:10;19.60;99.90
52058;DHT22;38063;53.210;6.504;2023-07-13T06:33:37;19.70;99.90
52058;DHT22;38063;53.210;6.504;2023-07-13T06:36:04;19.80;99.90
52058;DHT22;38063;53.210;6.504;2023-07-13T06:38:30;19.90;99.90
52058;DHT22;38063;53.210;6.504;2023-07-13T06:40:57;20.00;99.90
52058;DHT22;38063;53.210;6.504;2023-07-13T06:43:23;20.00;99.90
52058;DHT22;38063;53.210;6.504;2023-07-13T06:45:50;20.00;99.90
52058;DHT22;38063;53.210;6.504;2023-07-13T06:48:18;20.20;99.90
52058;DHT22;38063;53.210;6.504;2023-07-13T06:50:44;20.20;99.90
52058;DHT22;38063;53.210;6.504;2023-07-13T06:53:11;20.10;99.90
52058;DHT22;38063;53.210;6.504;2023-07-13T06:55:37;20.20;99.90
52058;DHT22;38063;53.210;6.504;2023-07-13T06:58:03;20.30;99.90
52058;DHT22;38063;53.210;6.504;2023-07-13T07:00:29;20.50;99.90
52058;DHT22;38063;53.210;6.504;2023-07-13T07:02:55;20.60;99.90
52058;DHT22;38063;53.210;6.504;2023-07-13T07:05:20;20.90;99.90
52058;DHT22;38063;53.210;6.504;2023-07-13T07:07:51;21.20;99.90
52058;DHT22;38063;53.210;6.504;2023-07-13T07:10:18;21.60;99.90
52058;DHT22;38063;53.210;6.504;2023-07-13T07:12:44;21.80;99.90
52058;DHT22;38063;53.210;6.504;2023-07-13T07:15:10;21.60;99.90
52058;DHT22;38063;53.210;6.504;2023-07-13T07:17:35;21.40;99.90
52058;DHT22;38063;53.210;6.504;2023-07-13T07:20:02;21.00;99.90
52058;DHT22;38063;53.210;6.504;2023-07-13T07:22:29;20.70;99.90
52058;DHT22;38063;53.210;6.504;2023-07-13T07:24:56;20.30;99.90
52058;DHT22;38063;53.210;6.504;2023-07-13T07:27:22;20.00;99.90
52058;DHT22;38063;53.210;6.504;2023-07-13T07:29:48;20.00;99.90
52058;DHT22;38063;53.210;6.504;2023-07-13T07:32:14;19.90;99.90
52058;DHT22;38063;53.210;6.504;2023-07-13T07:34:39;20.00;99.90
52058;DHT22;38063;53.210;6.504;2023-07-13T07:37:05;20.30;99.90
52058;DHT22;38063;53.210;6.504;2023-07-13T07:39:31;20.60;99.90
52058;DHT22;38063;53.210;6.504;2023-07-13T07:41:57;20.70;99.90
52058;DHT22;38063;53.210;6.504;2023-07-13T07:44:23;20.70;99.90
52058;DHT22;38063;53.210;6.504;2023-07-13T07:46:48;20.90;99.90
52058;DHT22;38063;53.210;6.504;2023-07-13T07:49:15;21.10;99.90
52058;DHT22;38063;53.210;6.504;2023-07-13T07:51:40;21.00;99.90
52058;DHT22;38063;53.210;6.504;2023-07-13T07:54:06;20.80;99.90
52058;DHT22;38063;53.210;6.504;2023-07-13T07:56:32;20.60;99.90
52058;DHT22;38063;53.210;6.504;2023-07-13T07:58:58;20.40;99.90
52058;DHT22;38063;53.210;6.504;2023-07-13T08:01:24;20.20;99.90
52058;DHT22;38063;53.210;6.504;2023-07-13T08:03:49;20.00;99.90
52058;DHT22;38063;53.210;6.504;2023-07-13T08:06:15;19.80;99.90
52058;DHT22;38063;53.210;6.504;2023-07-13T08:08:41;19.70;99.90
52058;DHT22;38063;53.210;6.504;2023-07-13T08:11:08;19.50;99.90
52058;DHT22;38063;53.210;6.504;2023-07-13T08:13:34;19.40;99.90
52058;DHT22;38063;53.210;6.504;2023-07-13T08:16:00;19.40;99.90
52058;DHT22;38063;53.210;6.504;2023-07-13T08:18:26;19.30;99.90
52058;DHT22;38063;53.210;6.504;2023-07-13T08:20:54;19.30;99.90
52058;DHT22;38063;53.210;6.504;2023-07-13T08:23:22;19.30;99.90
52058;DHT22;38063;53.210;6.504;2023-07-13T08:25:52;19.40;99.90
52058;DHT22;38063;53.210;6.504;2023-07-13T08:28:19;19.60;99.90
52058;DHT22;38063;53.210;6.504;2023-07-13T08:30:45;19.70;99.90
52058;DHT22;38063;53.210;6.504;2023-07-13T08:33:18;19.70;99.90
52058;DHT22;38063;53.210;6.504;2023-07-13T08:35:48;19.70;99.90
52058;DHT22;38063;53.210;6.504;2023-07-13T08:38:15;19.60;99.90
52058;DHT22;38063;53.210;6.504;2023-07-13T08:40:41;19.50;99.90
52058;DHT22;38063;53.210;6.504;2023-07-13T08:43:16;19.50;99.90
52058;DHT22;38063;53.210;6.504;2023-07-13T08:45:52;19.90;99.90
52058;DHT22;38063;53.210;6.504;2023-07-13T08:49:13;20.50;99.90
52058;DHT22;38063;53.210;6.504;2023-07-13T08:56:38;21.80;99.90
52058;DHT22;38063;53.210;6.504;2023-07-13T08:59:15;22.00;99.90
52058;DHT22;38063;53.210;6.504;2023-07-13T09:04:20;22.00;99.90
52058;DHT22;38063;53.210;6.504;2023-07-13T09:18:00;21.30;99.90
52058;DHT22;38063;53.210;6.504;2023-07-13T09:20:46;21.80;99.90
52058;DHT22;38063;53.210;6.504;2023-07-13T09:23:20;22.30;99.90
52058;DHT22;38063;53.210;6.504;2023-07-13T09:25:50;22.60;99.90
52058;DHT22;38063;53.210;6.504;2023-07-13T09:28:27;23.00;99.90
52058;DHT22;38063;53.210;6.504;2023-07-13T09:31:03;23.30;99.90
52058;DHT22;38063;53.210;6.504;2023-07-13T09:33:29;23.50;99.90
52058;DHT22;38063;53.210;6.504;2023-07-13T09:35:57;23.90;99.90
52058;DHT22;38063;53.210;6.504;2023-07-13T09:38:26;24.10;99.90
52058;DHT22;38063;53.210;6.504;2023-07-13T09:43:36;23.80;99.90
52058;DHT22;38063;53.210;6.504;2023-07-13T09:46:02;23.60;99.90
52058;DHT22;38063;53.210;6.504;2023-07-13T09:48:35;23.50;99.90
52058;DHT22;38063;53.210;6.504;2023-07-13T09:51:12;23.20;99.90
52058;DHT22;38063;53.210;6.504;2023-07-13T09:53:41;23.10;99.90
52058;DHT22;38063;53.210;6.504;2023-07-13T09:56:29;23.00;99.90
52058;DHT22;38063;53.210;6.504;2023-07-13T09:58:56;22.80;99.90
52058;DHT22;38063;53.210;6.504;2023-07-13T10:01:38;22.40;99.90
52058;DHT22;38063;53.210;6.504;2023-07-13T10:04:16;22.00;99.90
52058;DHT22;38063;53.210;6.504;2023-07-13T10:06:44;21.70;99.90
52058;DHT22;38063;53.210;6.504;2023-07-13T10:09:14;21.50;99.90
52058;DHT22;38063;53.210;6.504;2023-07-13T10:11:40;21.30;99.90
52058;DHT22;38063;53.210;6.504;2023-07-13T10:14:14;21.40;99.90
52058;DHT22;38063;53.210;6.504;2023-07-13T10:16:42;21.90;99.90
52058;DHT22;38063;53.210;6.504;2023-07-13T10:21:55;22.80;98.30
52058;DHT22;38063;53.210;6.504;2023-07-13T10:24:23;23.00;97.90
52058;DHT22;38063;53.210;6.504;2023-07-13T10:27:23;23.00;98.10
52058;DHT22;38063;53.210;6.504;2023-07-13T10:29:54;23.10;97.60
52058;DHT22;38063;53.210;6.504;2023-07-13T10:32:23;23.40;97.50
52058;DHT22;38063;53.210;6.504;2023-07-13T10:34:50;23.70;96.60
52058;DHT22;38063;53.210;6.504;2023-07-13T10:37:26;23.70;96.20
52058;DHT22;38063;53.210;6.504;2023-07-13T10:39:55;23.60;95.90
52058;DHT22;38063;53.210;6.504;2023-07-13T10:42:32;23.40;96.30
52058;DHT22;38063;53.210;6.504;2023-07-13T10:44:58;22.90;95.10
52058;DHT22;38063;53.210;6.504;2023-07-13T10:47:24;22.40;96.40
52058;DHT22;38063;53.210;6.504;2023-07-13T10:49:54;22.20;96.40
52058;DHT22;38063;53.210;6.504;2023-07-13T10:52:43;22.50;96.60
52058;DHT22;38063;53.210;6.504;2023-07-13T10:55:53;22.90;96.10
52058;DHT22;38063;53.210;6.504;2023-07-13T10:58:33;23.10;95.60
52058;DHT22;38063;53.210;6.504;2023-07-13T11:01:14;22.90;95.60
52058;DHT22;38063;53.210;6.504;2023-07-13T11:14:02;23.40;94.00
52058;DHT22;38063;53.210;6.504;2023-07-13T11:16:46;23.30;93.40
52058;DHT22;38063;53.210;6.504;2023-07-13T11:24:58;23.60;94.00
52058;DHT22;38063;53.210;6.504;2023-07-13T11:27:42;23.40;92.30
52058;DHT22;38063;53.210;6.504;2023-07-13T11:30:20;23.30;92.70
52058;DHT22;38063;53.210;6.504;2023-07-13T11:32:51;23.50;93.20
52058;DHT22;38063;53.210;6.504;2023-07-13T11:35:26;23.60;93.70
52058;DHT22;38063;53.210;6.504;2023-07-13T11:37:53;23.90;93.00
52058;DHT22;38063;53.210;6.504;2023-07-13T11:40:19;24.20;92.70
52058;DHT22;38063;53.210;6.504;2023-07-13T11:42:47;24.10;92.40
52058;DHT22;38063;53.210;6.504;2023-07-13T11:45:20;24.00;92.30
52058;DHT22;38063;53.210;6.504;2023-07-13T11:47:49;23.60;91.70
52058;DHT22;38063;53.210;6.504;2023-07-13T11:50:23;23.60;92.50
52058;DHT22;38063;53.210;6.504;2023-07-13T11:52:51;23.60;92.20
52058;DHT22;38063;53.210;6.504;2023-07-13T11:55:20;24.00;92.10
52058;DHT22;38063;53.210;6.504;2023-07-13T12:00:23;24.30;91.80
52058;DHT22;38063;53.210;6.504;2023-07-13T12:02:55;24.30;91.50
52058;DHT22;38063;53.210;6.504;2023-07-13T12:05:22;24.10;91.30
52058;DHT22;38063;53.210;6.504;2023-07-13T12:07:49;23.90;91.60
52058;DHT22;38063;53.210;6.504;2023-07-13T12:10:20;23.90;91.90
52058;DHT22;38063;53.210;6.504;2023-07-13T12:13:01;24.00;91.70
52058;DHT22;38063;53.210;6.504;2023-07-13T12:15:40;23.80;91.80
52058;DHT22;38063;53.210;6.504;2023-07-13T12:18:19;23.70;91.60
52058;DHT22;38063;53.210;6.504;2023-07-13T12:20:46;24.00;91.40
52058;DHT22;38063;53.210;6.504;2023-07-13T12:23:32;24.10;91.60
52058;DHT22;38063;53.210;6.504;2023-07-13T12:26:01;24.40;91.40
52058;DHT22;38063;53.210;6.504;2023-07-13T12:28:36;24.40;91.20
52058;DHT22;38063;53.210;6.504;2023-07-13T12:31:07;24.20;90.10
52058;DHT22;38063;53.210;6.504;2023-07-13T12:33:33;24.10;90.70
52058;DHT22;38063;53.210;6.504;2023-07-13T12:36:05;23.90;90.70
52058;DHT22;38063;53.210;6.504;2023-07-13T12:38:32;23.70;89.60
52058;DHT22;38063;53.210;6.504;2023-07-13T12:40:58;23.70;90.20
52058;DHT22;38063;53.210;6.504;2023-07-13T12:43:25;23.60;90.40
52058;DHT22;38063;53.210;6.504;2023-07-13T12:46:00;23.30;91.60
52058;DHT22;38063;53.210;6.504;2023-07-13T12:48:26;23.30;92.60
52058;DHT22;38063;53.210;6.504;2023-07-13T12:50:53;23.40;92.50
52058;DHT22;38063;53.210;6.504;2023-07-13T12:53:28;23.40;92.10
52058;DHT22;38063;53.210;6.504;2023-07-13T12:55:59;23.50;92.20
52058;DHT22;38063;53.210;6.504;2023-07-13T12:58:36;23.30;92.60
52058;DHT22;38063;53.210;6.504;2023-07-13T13:01:02;23.00;92.80
52058;DHT22;38063;53.210;6.504;2023-07-13T13:03:49;22.80;93.40
52058;DHT22;38063;53.210;6.504;2023-07-13T13:08:49;22.50;94.20
52058;DHT22;38063;53.210;6.504;2023-07-13T13:11:16;22.70;94.40
52058;DHT22;38063;53.210;6.504;2023-07-13T13:13:42;22.80;94.40
52058;DHT22;38063;53.210;6.504;2023-07-13T13:16:12;22.80;94.20
52058;DHT22;38063;53.210;6.504;2023-07-13T13:18:39;22.70;94.30
52058;DHT22;38063;53.210;6.504;2023-07-13T13:21:05;22.50;93.80
52058;DHT22;38063;53.210;6.504;2023-07-13T13:23:31;22.50;93.80
52058;DHT22;38063;53.210;6.504;2023-07-13T13:25:57;22.50;93.80
52058;DHT22;38063;53.210;6.504;2023-07-13T13:28:23;22.50;93.30
52058;DHT22;38063;53.210;6.504;2023-07-13T13:30:50;22.50;93.70
52058;DHT22;38063;53.210;6.504;2023-07-13T13:33:18;22.40;94.20
52058;DHT22;38063;53.210;6.504;2023-07-13T13:35:44;22.20;94.60
52058;DHT22;38063;53.210;6.504;2023-07-13T13:38:14;22.10;94.80
52058;DHT22;38063;53.210;6.504;2023-07-13T13:40:41;22.00;94.90
52058;DHT22;38063;53.210;6.504;2023-07-13T13:43:15;21.80;95.10
52058;DHT22;38063;53.210;6.504;2023-07-13T13:45:42;21.70;95.50
52058;DHT22;38063;53.210;6.504;2023-07-13T13:48:17;21.70;95.80
52058;DHT22;38063;53.210;6.504;2023-07-13T13:50:44;21.90;95.40
52058;DHT22;38063;53.210;6.504;2023-07-13T13:53:13;22.10;95.10
52058;DHT22;38063;53.210;6.504;2023-07-13T13:55:39;22.30;95.20
52058;DHT22;38063;53.210;6.504;2023-07-13T13:58:10;22.50;95.00
52058;DHT22;38063;53.210;6.504;2023-07-13T14:00:37;22.50;94.30
52058;DHT22;38063;53.210;6.504;2023-07-13T14:03:04;22.40;94.30
52058;DHT22;38063;53.210;6.504;2023-07-13T14:05:29;22.30;94.20
52058;DHT22;38063;53.210;6.504;2023-07-13T14:07:56;22.30;94.50
52058;DHT22;38063;53.210;6.504;2023-07-13T14:10:25;22.30;94.80
52058;DHT22;38063;53.210;6.504;2023-07-13T14:12:54;22.40;94.80
52058;DHT22;38063;53.210;6.504;2023-07-13T14:15:28;22.60;94.80
52058;DHT22;38063;53.210;6.504;2023-07-13T14:17:54;22.70;94.10
52058;DHT22;38063;53.210;6.504;2023-07-13T14:20:22;22.80;94.10
52058;DHT22;38063;53.210;6.504;2023-07-13T14:22:50;23.00;94.00
52058;DHT22;38063;53.210;6.504;2023-07-13T14:25:17;23.20;93.50
52058;DHT22;38063;53.210;6.504;2023-07-13T14:27:45;23.10;93.10
52058;DHT22;38063;53.210;6.504;2023-07-13T14:30:16;23.00;92.80
52058;DHT22;38063;53.210;6.504;2023-07-13T14:32:42;23.00;93.00
52058;DHT22;38063;53.210;6.504;2023-07-13T14:35:13;23.00;92.90
52058;DHT22;38063;53.210;6.504;2023-07-13T14:37:40;22.90;93.10
52058;DHT22;38063;53.210;6.504;2023-07-13T14:40:30;22.70;93.30
52058;DHT22;38063;53.210;6.504;2023-07-13T14:42:57;22.80;93.50
52058;DHT22;38063;53.210;6.504;2023-07-13T14:45:23;22.80;93.30
52058;DHT22;38063;53.210;6.504;2023-07-13T14:47:49;22.60;93.40
52058;DHT22;38063;53.210;6.504;2023-07-13T14:50:26;22.50;93.60
52058;DHT22;38063;53.210;6.504;2023-07-13T14:52:56;22.50;93.80
52058;DHT22;38063;53.210;6.504;2023-07-13T14:55:22;22.60;94.20
52058;DHT22;38063;53.210;6.504;2023-07-13T14:57:51;22.70;94.10
52058;DHT22;38063;53.210;6.504;2023-07-13T15:00:21;22.80;94.10
52058;DHT22;38063;53.210;6.504;2023-07-13T15:02:54;22.90;94.20
52058;DHT22;38063;53.210;6.504;2023-07-13T15:05:23;23.00;93.90
52058;DHT22;38063;53.210;6.504;2023-07-13T15:07:50;22.90;93.70
52058;DHT22;38063;53.210;6.504;2023-07-13T15:10:22;22.70;93.70
52058;DHT22;38063;53.210;6.504;2023-07-13T15:12:51;22.60;93.90
52058;DHT22;38063;53.210;6.504;2023-07-13T15:15:17;22.40;94.20
52058;DHT22;38063;53.210;6.504;2023-07-13T15:17:44;22.30;94.50
52058;DHT22;38063;53.210;6.504;2023-07-13T15:20:29;22.20;94.90
52058;DHT22;38063;53.210;6.504;2023-07-13T15:22:56;22.20;95.00
52058;DHT22;38063;53.210;6.504;2023-07-13T15:25:24;22.30;95.20
52058;DHT22;38063;53.210;6.504;2023-07-13T15:27:52;22.30;95.00
52058;DHT22;38063;53.210;6.504;2023-07-13T15:30:18;22.30;95.10
52058;DHT22;38063;53.210;6.504;2023-07-13T15:32:45;22.30;95.10
52058;DHT22;38063;53.210;6.504;2023-07-13T15:35:15;22.40;94.80
52058;DHT22;38063;53.210;6.504;2023-07-13T15:37:42;22.30;94.60
52058;DHT22;38063;53.210;6.504;2023-07-13T15:40:08;22.20;94.60
52058;DHT22;38063;53.210;6.504;2023-07-13T15:42:34;22.10;94.70
52058;DHT22;38063;53.210;6.504;2023-07-13T15:45:02;22.00;94.90
52058;DHT22;38063;53.210;6.504;2023-07-13T15:47:27;22.00;94.80
52058;DHT22;38063;53.210;6.504;2023-07-13T15:49:53;22.00;94.70
52058;DHT22;38063;53.210;6.504;2023-07-13T15:52:22;22.10;94.60
52058;DHT22;38063;53.210;6.504;2023-07-13T15:54:49;22.20;94.90
52058;DHT22;38063;53.210;6.504;2023-07-13T15:57:16;22.20;94.90
52058;DHT22;38063;53.210;6.504;2023-07-13T15:59:42;22.20;94.70
52058;DHT22;38063;53.210;6.504;2023-07-13T16:02:19;22.10;94.80
52058;DHT22;38063;53.210;6.504;2023-07-13T16:04:46;22.00;94.70
52058;DHT22;38063;53.210;6.504;2023-07-13T16:07:15;22.00;95.00
52058;DHT22;38063;53.210;6.504;2023-07-13T16:09:43;22.20;95.20
52058;DHT22;38063;53.210;6.504;2023-07-13T16:12:13;22.30;95.20
52058;DHT22;38063;53.210;6.504;2023-07-13T16:14:40;22.30;95.00
52058;DHT22;38063;53.210;6.504;2023-07-13T16:17:13;22.30;95.10
52058;DHT22;38063;53.210;6.504;2023-07-13T16:19:40;22.20;95.10
52058;DHT22;38063;53.210;6.504;2023-07-13T16:22:15;22.10;95.20
52058;DHT22;38063;53.210;6.504;2023-07-13T16:24:41;22.10;95.40
52058;DHT22;38063;53.210;6.504;2023-07-13T16:27:11;21.90;95.40
52058;DHT22;38063;53.210;6.504;2023-07-13T16:29:38;21.80;95.60